createdAt,value
2019-05-19T00:02:34.559Z,12.1
2019-05-19T00:07:36.997Z,12
2019-05-19T00:12:39.475Z,11.9
2019-05-19T00:17:41.931Z,11.9
2019-05-19T00:22:44.381Z,11.7
2019-05-19T00:27:46.866Z,11.6
2019-05-19T00:32:49.301Z,11.5
2019-05-19T00:37:51.784Z,11.4
2019-05-19T00:42:54.216Z,11.6
2019-05-19T00:47:56.669Z,11.6
2019-05-19T00:52:59.145Z,11.6
2019-05-19T00:58:01.587Z,11.5
2019-05-19T01:03:04.075Z,11.4
2019-05-19T01:08:06.554Z,11.1
2019-05-19T01:13:08.960Z,10.9
2019-05-19T01:18:11.462Z,10.8
2019-05-19T01:23:13.898Z,10.6
2019-05-19T01:28:16.322Z,10.4
2019-05-19T01:33:18.803Z,10.3
2019-05-19T01:38:21.253Z,10.1
2019-05-19T01:43:23.717Z,10
2019-05-19T01:48:27.960Z,9.9
2019-05-19T01:53:28.620Z,9.7
2019-05-19T01:58:31.147Z,9.7
2019-05-19T02:03:33.550Z,9.6
2019-05-19T02:08:35.984Z,9.6
2019-05-19T02:13:38.507Z,9.5
2019-05-19T02:18:40.968Z,9.5
2019-05-19T02:23:43.357Z,9.4
2019-05-19T02:28:45.874Z,9.4
2019-05-19T02:33:48.292Z,9.4
2019-05-19T02:38:50.791Z,9.3
2019-05-19T02:43:53.274Z,9.2
2019-05-19T02:48:55.638Z,9.2
2019-05-19T02:53:58.117Z,9.2
2019-05-19T02:59:00.601Z,9.1
2019-05-19T03:04:03.036Z,9.1
2019-05-19T03:09:05.487Z,9.1
2019-05-19T03:14:07.996Z,9.2
2019-05-19T03:19:10.411Z,9.3
2019-05-19T03:24:12.852Z,9.4
2019-05-19T03:29:15.337Z,9.6
2019-05-19T03:34:17.760Z,9.7
2019-05-19T03:39:20.215Z,9.6
2019-05-19T03:44:22.850Z,9.7
2019-05-19T03:49:25.177Z,9.7
2019-05-19T03:54:27.600Z,9.8
2019-05-19T03:59:30.044Z,9.9
2019-05-19T04:04:32.525Z,10
2019-05-19T04:09:35.000Z,10.2
2019-05-19T04:14:37.480Z,10.4
2019-05-19T04:19:39.894Z,10.5
2019-05-19T04:24:42.347Z,10.7
2019-05-19T04:29:44.826Z,11
2019-05-19T04:34:47.278Z,11.2
2019-05-19T04:39:49.752Z,11.5
2019-05-19T04:44:52.200Z,11.8
2019-05-19T04:49:54.648Z,12.1
2019-05-19T04:54:57.116Z,12.3
2019-05-19T04:59:59.555Z,12.5
2019-05-19T05:05:02.053Z,12.7
2019-05-19T05:10:04.505Z,13
2019-05-19T05:15:06.991Z,13.2
2019-05-19T05:20:09.464Z,13.5
2019-05-19T05:25:11.862Z,13.9
2019-05-19T05:30:14.368Z,14.2
2019-05-19T05:35:16.771Z,14.4
2019-05-19T05:40:19.208Z,14.5
2019-05-19T05:45:21.764Z,14.7
2019-05-19T05:50:24.229Z,14.8
2019-05-19T05:55:26.590Z,14.9
2019-05-19T06:00:29.067Z,15.1
2019-05-19T06:05:31.505Z,15.3
2019-05-19T06:10:33.954Z,15.6
2019-05-19T06:15:36.462Z,15.8
2019-05-19T06:20:38.971Z,16.1
2019-05-19T06:25:41.330Z,17.1
2019-05-19T06:30:43.910Z,18.3
2019-05-19T06:35:46.250Z,19.4
2019-05-19T06:40:48.719Z,20.6
2019-05-19T06:45:51.194Z,21.8
2019-05-19T06:50:53.728Z,22.3
2019-05-19T06:55:56.092Z,22.8
2019-05-19T07:00:59.170Z,23.2
2019-05-19T07:06:01.033Z,23.7
2019-05-19T07:11:03.467Z,23.5
2019-05-19T07:16:05.952Z,23.1
2019-05-19T07:21:08.460Z,23.1
2019-05-19T07:26:10.824Z,23.4
2019-05-19T07:31:13.295Z,23.5
2019-05-19T07:36:15.789Z,24
2019-05-19T07:41:18.205Z,25.5
2019-05-19T07:46:20.738Z,25.3
2019-05-19T07:51:23.204Z,25.6
2019-05-19T07:56:25.625Z,27.5
2019-05-19T08:01:28.045Z,29.7
2019-05-19T08:06:30.529Z,30.7
2019-05-19T08:11:33.018Z,31.4
2019-05-19T08:16:35.428Z,33.1
2019-05-19T08:21:38.156Z,33.5
2019-05-19T08:26:40.343Z,33.9
2019-05-19T08:31:42.818Z,34
2019-05-19T08:36:45.323Z,34
2019-05-19T08:41:47.762Z,35.2
2019-05-19T08:46:50.201Z,36.7
2019-05-19T08:51:52.818Z,37.5
2019-05-19T08:56:55.167Z,38.2
2019-05-19T09:01:57.610Z,37.7
2019-05-19T09:07:00.065Z,37.8
2019-05-19T09:12:02.496Z,37.1
2019-05-19T09:17:05.016Z,38
2019-05-19T09:22:07.634Z,38.8
2019-05-19T09:27:09.883Z,38.2
2019-05-19T09:32:12.321Z,38.3
2019-05-19T09:37:14.807Z,38
2019-05-19T09:42:17.271Z,37
2019-05-19T09:47:19.716Z,36.4
2019-05-19T09:52:22.266Z,36.5
2019-05-19T09:57:24.674Z,37.4
2019-05-19T10:02:27.085Z,37.7
2019-05-19T10:07:29.672Z,38.1
2019-05-19T10:12:32.029Z,38.2
2019-05-19T10:17:34.544Z,38.6
2019-05-19T10:22:37.002Z,38.8
2019-05-19T10:27:39.387Z,38.2
2019-05-19T10:32:41.864Z,38.1
2019-05-19T10:37:44.340Z,38
2019-05-19T10:42:46.864Z,37.2
2019-05-19T10:47:49.226Z,36.6
2019-05-19T10:52:51.751Z,36
2019-05-19T10:57:54.163Z,35
2019-05-19T11:02:56.617Z,35.1
2019-05-19T11:07:59.081Z,35.2
2019-05-19T11:18:06.294Z,36.1
2019-05-19T11:23:06.593Z,35.3
2019-05-19T11:28:08.935Z,34.3
2019-05-19T11:33:11.381Z,32.4
2019-05-19T11:38:13.830Z,32
2019-05-19T11:43:16.292Z,32.1
2019-05-19T11:48:18.783Z,31.7
2019-05-19T11:53:21.264Z,32.2
2019-05-19T11:58:23.723Z,32.4
2019-05-19T12:03:26.173Z,30.5
2019-05-19T12:08:28.611Z,28.8
2019-05-19T12:13:31.976Z,27.8
2019-05-19T12:18:33.539Z,28.7
2019-05-19T12:23:35.999Z,29.2
2019-05-19T12:28:38.446Z,29.2
2019-05-19T12:33:51.358Z,28.9
2019-05-19T12:38:43.385Z,29.1
2019-05-19T12:43:45.914Z,29.4
2019-05-19T12:48:48.355Z,29.8
2019-05-19T12:53:50.813Z,30.3
2019-05-19T12:58:53.191Z,30.6
2019-05-19T13:03:55.656Z,30.2
2019-05-19T13:08:58.129Z,29
2019-05-19T13:14:00.596Z,27.8
2019-05-19T13:19:03.067Z,27
2019-05-19T13:24:05.495Z,26.7
2019-05-19T13:29:07.968Z,26.4
2019-05-19T13:34:11.631Z,26.4
2019-05-19T13:39:12.881Z,26.5
2019-05-19T13:44:15.366Z,26.6
2019-05-19T13:49:17.965Z,26.6
2019-05-19T13:54:20.256Z,26.4
2019-05-19T13:59:22.732Z,26.1
2019-05-19T14:04:25.204Z,26.2
2019-05-19T14:09:27.632Z,26.7
2019-05-19T14:14:30.095Z,27.1
2019-05-19T14:19:32.560Z,26.8
2019-05-19T14:24:34.996Z,26.6
2019-05-19T14:29:37.482Z,26.5
2019-05-19T14:34:39.978Z,26.5
2019-05-19T14:39:42.393Z,26.3
2019-05-19T14:44:44.944Z,26
2019-05-19T14:49:47.326Z,25.9
2019-05-19T14:54:49.746Z,26
2019-05-19T14:59:52.208Z,26
2019-05-19T15:04:54.667Z,25.9
2019-05-19T15:09:57.149Z,25.1
2019-05-19T15:14:59.603Z,24.5
2019-05-19T15:20:02.112Z,24.3
2019-05-19T15:25:04.510Z,24.5
2019-05-19T15:30:12.737Z,25.1
2019-05-19T15:35:09.448Z,25.4
2019-05-19T15:40:12.205Z,25.2
2019-05-19T15:45:14.362Z,25.2
2019-05-19T15:50:16.820Z,25.5
2019-05-19T15:55:19.349Z,25.6
2019-05-19T16:00:21.849Z,25.5
2019-05-19T16:05:24.182Z,25.2
2019-05-19T16:10:26.647Z,24.9
2019-05-19T16:15:29.120Z,24.5
2019-05-19T16:20:31.589Z,24
2019-05-19T16:25:34.040Z,23.7
2019-05-19T16:30:36.597Z,23.5
2019-05-19T16:35:39.049Z,23.3
2019-05-19T16:40:41.412Z,23.1
2019-05-19T16:45:43.865Z,23
2019-05-19T16:50:46.351Z,22.8
2019-05-19T16:55:48.795Z,22.7
2019-05-19T17:00:51.331Z,22.6
2019-05-19T17:05:53.691Z,22.4
2019-05-19T17:10:56.259Z,22.3
2019-05-19T17:15:58.624Z,22.1
2019-05-19T17:21:01.083Z,22.1
2019-05-19T17:26:03.524Z,21.9
2019-05-19T17:31:07.552Z,21.8
2019-05-19T17:36:08.442Z,21.6
2019-05-19T17:41:10.894Z,21.4
2019-05-19T17:46:13.407Z,21.1
2019-05-19T17:51:15.860Z,21
2019-05-19T17:56:18.277Z,20.8
2019-05-19T18:01:20.809Z,20.6
2019-05-19T18:06:23.189Z,20.3
2019-05-19T18:11:25.652Z,20
2019-05-19T18:16:28.163Z,19.7
2019-05-19T18:21:30.581Z,19.4
2019-05-19T18:26:33.014Z,19.1
2019-05-19T18:31:35.571Z,18.7
2019-05-19T18:36:37.953Z,18.4
2019-05-19T18:41:40.401Z,18.1
2019-05-19T18:46:42.859Z,17.9
2019-05-19T18:51:45.323Z,17.6
2019-05-19T18:56:50.605Z,17.3
2019-05-19T19:01:50.306Z,17
2019-05-19T19:06:52.738Z,16.6
2019-05-19T19:11:55.189Z,16.3
2019-05-19T19:16:57.619Z,16
2019-05-19T19:22:00.303Z,15.7
2019-05-19T19:27:02.532Z,15.4
2019-05-19T19:32:05.105Z,15.2
2019-05-19T19:37:07.434Z,15
2019-05-19T19:42:09.899Z,14.8
2019-05-19T19:47:12.377Z,14.7
2019-05-19T19:52:14.837Z,14.5
2019-05-19T20:02:19.737Z,14.2
2019-05-19T20:07:22.192Z,14
2019-05-19T20:12:24.674Z,13.9
2019-05-19T20:17:27.090Z,13.8
2019-05-19T20:22:29.591Z,13.6
2019-05-19T20:27:32.041Z,13.6
2019-05-19T20:32:34.471Z,13.5
2019-05-19T20:37:36.936Z,13.5
2019-05-19T20:42:39.405Z,13.4
2019-05-19T20:47:41.836Z,13.4
2019-05-19T20:52:44.303Z,13.3
2019-05-19T20:57:46.770Z,13.3
2019-05-19T21:02:49.228Z,13.1
2019-05-19T21:07:51.728Z,13
2019-05-19T21:12:57.221Z,12.9
2019-05-19T21:17:56.592Z,12.8
2019-05-19T21:22:59.051Z,12.7
2019-05-19T21:28:01.537Z,12.7
2019-05-19T21:33:03.949Z,12.6
2019-05-19T21:38:06.464Z,12.6
2019-05-19T21:43:08.884Z,12.6
2019-05-19T21:48:11.368Z,12.5
2019-05-19T21:53:13.810Z,12.4
2019-05-19T21:58:16.287Z,12.3
2019-05-19T22:03:18.749Z,12.3
2019-05-19T22:08:21.228Z,12.3
2019-05-19T22:13:23.628Z,12.2
2019-05-19T22:18:26.082Z,12.1
2019-05-19T22:23:29.235Z,12.1
2019-05-19T22:28:30.991Z,12.2
2019-05-19T22:33:33.459Z,12.1
2019-05-19T22:38:37.264Z,12.1
2019-05-19T22:43:38.385Z,12
2019-05-19T22:48:40.821Z,11.9
2019-05-19T22:53:43.291Z,11.8
2019-05-19T22:58:45.755Z,11.8
2019-05-19T23:03:48.190Z,11.8
2019-05-19T23:08:50.654Z,11.6
2019-05-19T23:13:53.189Z,11.6
2019-05-19T23:18:55.561Z,11.6
2019-05-19T23:23:58.069Z,11.6
2019-05-19T23:29:00.472Z,11.6
2019-05-19T23:34:02.963Z,11.5
2019-05-19T23:39:05.408Z,11.4
2019-05-19T23:44:08.121Z,11.4
2019-05-19T23:49:10.318Z,11.4
2019-05-19T23:54:12.806Z,11.5
2019-05-19T23:59:15.336Z,11.5
